Diamond Island, Maine
Current Conditions -  °F | °C
As of 8:51 PM on Friday 21 Nov 2014 (Local Time) from KPWM Reporting Station
Clear Clear  
Wind Chill: 14°   Ceiling: Unl
Heat Index: 25°   Visibility: 10mi
Dew Point:   Wind: 13mph
Humidity: 43%   Direction: 300°WNW
Pressure: 30.31"   Gusts: 17mph
Location:  43.6801°N, 70.1969°W
Report Text: KPWM 220151Z 30011G15KT 10SM CLR M04/M15 A3031 RMK AO2 SLP266 T10391150
Loading
Personal Weather Stations






























Interactive Weather Map New forecast layout! Learn more

10-Day Weather Forecast

Advertisements
Track Severe Weather on mobile